Time;durP1;ratioP1;P1;durP2;ratioP2;P2;SDS_P1;SDS_P2;PMS_P1;PMS_P2;Temp;Humidity;BMP_temperature;BMP_pressure;BME280_temperature;BME280_humidity;BME280_pressure;Samples;Min_cycle;Max_cycle;Signal;HPM_P1;HPM_P2
2021/01/14 00:01:27;;;;;;;36.58;22.50;;;;;;;-0.95;67.27;99031.64;1764705;81;21087;-50
2021/01/14 00:03:55;;;;;;;28.47;18.10;;;;;;;-0.93;67.10;99038.44;1764807;81;20999;-50
2021/01/14 00:06:22;;;;;;;35.05;24.07;;;;;;;-0.91;66.83;99029.59;1764735;81;20951;-50
2021/01/14 00:08:50;;;;;;;26.60;18.23;;;;;;;-0.91;66.86;99031.47;1764956;81;21028;-50
2021/01/14 00:11:17;;;;;;;31.05;21.17;;;;;;;-0.90;66.75;99025.00;1765007;81;21010;-50
2021/01/14 00:13:45;;;;;;;26.27;17.17;;;;;;;-0.91;66.58;99017.99;1765112;81;21080;-49
2021/01/14 00:16:12;;;;;;;36.98;30.40;;;;;;;-0.96;66.79;99024.59;1764688;81;21019;-50
2021/01/14 00:18:39;;;;;;;32.08;22.52;;;;;;;-1.05;66.90;99022.23;1765103;80;21002;-50
2021/01/14 00:21:07;;;;;;;26.15;17.92;;;;;;;-1.01;67.10;99024.49;1764968;81;21593;-50
2021/01/14 00:23:34;;;;;;;30.60;21.25;;;;;;;-0.92;66.94;99023.08;1764848;80;21061;-50
2021/01/14 00:26:02;;;;;;;27.37;17.10;;;;;;;-0.94;66.65;99017.12;1764950;81;21426;-50
2021/01/14 00:28:30;;;;;;;30.15;22.73;;;;;;;-0.96;66.81;99022.70;1764835;80;21038;-50
2021/01/14 00:30:57;;;;;;;30.97;21.02;;;;;;;-0.94;66.85;99017.12;1765043;81;21014;-50
2021/01/14 00:33:25;;;;;;;32.85;22.62;;;;;;;-0.87;66.81;99018.64;1765094;81;21006;-50
2021/01/14 00:35:53;;;;;;;36.20;27.75;;;;;;;-0.80;66.59;99023.09;1764898;81;21026;-50
2021/01/14 00:38:20;;;;;;;32.78;23.25;;;;;;;-0.81;66.53;99029.55;1764953;81;21256;-51
2021/01/14 00:40:48;;;;;;;32.13;21.55;;;;;;;-0.85;66.56;99021.09;1764871;81;21010;-50
2021/01/14 00:43:16;;;;;;;29.85;21.23;;;;;;;-0.94;66.60;99022.51;1765015;81;21104;-51
2021/01/14 00:45:43;;;;;;;28.05;20.00;;;;;;;-1.01;66.95;99015.87;1765146;80;20923;-50
2021/01/14 00:48:11;;;;;;;38.40;23.52;;;;;;;-1.00;67.05;99017.52;1764932;79;20987;-50
2021/01/14 00:50:39;;;;;;;33.85;20.57;;;;;;;-0.98;67.15;99017.28;1765127;81;21369;-51
2021/01/14 00:53:07;;;;;;;31.35;20.65;;;;;;;-0.95;67.09;99010.88;1764836;81;21042;-50
2021/01/14 00:55:35;;;;;;;30.95;21.12;;;;;;;-0.94;67.17;99008.49;1765053;81;21022;-50
2021/01/14 00:58:02;;;;;;;33.02;22.25;;;;;;;-0.91;67.05;99008.56;1764924;81;21727;-50
2021/01/14 01:00:30;;;;;;;35.43;23.70;;;;;;;-0.86;66.85;99015.41;1765052;81;21050;-50
2021/01/14 01:03:01;;;;;;;32.00;21.00;;;;;;;-0.87;66.84;99012.44;1764958;81;21458;-50
2021/01/14 01:05:31;;;;;;;32.80;23.35;;;;;;;-0.87;66.74;99015.94;1764541;81;20998;-50
2021/01/14 01:07:59;;;;;;;34.67;23.55;;;;;;;-0.96;66.71;99019.20;1765118;81;21041;-50
2021/01/14 01:10:27;;;;;;;28.92;19.98;;;;;;;-0.96;67.00;99027.30;1764763;81;21034;-50
2021/01/14 01:12:57;;;;;;;31.65;21.80;;;;;;;-0.90;66.79;99017.76;1764888;81;21002;-50
2021/01/14 01:15:25;;;;;;;28.12;19.52;;;;;;;-0.89;66.85;99013.18;1764996;81;21429;-50
2021/01/14 01:17:52;;;;;;;30.45;21.00;;;;;;;-0.86;66.64;99011.36;1764949;81;21010;-50
2021/01/14 01:20:20;;;;;;;34.58;21.42;;;;;;;-0.87;66.67;99020.52;1765042;81;20986;-50
2021/01/14 01:22:47;;;;;;;32.73;22.65;;;;;;;-0.93;66.67;99021.43;1766797;80;21687;-50
2021/01/14 01:25:15;;;;;;;30.75;19.12;;;;;;;-0.96;66.93;99025.94;1781974;80;21009;-49
2021/01/14 01:27:42;;;;;;;27.62;18.27;;;;;;;-0.97;66.99;99026.98;1781887;80;21138;-50
2021/01/14 01:30:12;;;;;;;26.35;17.80;;;;;;;-0.96;66.86;99021.91;1781797;80;21041;-50
2021/01/14 01:32:40;;;;;;;28.92;20.52;;;;;;;-0.94;66.87;99019.81;1781964;80;20966;-50
2021/01/14 01:35:13;;;;;;;28.47;18.85;;;;;;;-0.90;66.72;99022.31;1781817;80;20977;-50
2021/01/14 01:37:41;;;;;;;30.17;20.55;;;;;;;-0.91;66.67;99025.55;1782015;80;20942;-50
2021/01/14 01:40:12;;;;;;;28.77;19.70;;;;;;;-0.85;66.65;99033.23;1781922;80;21187;-50
2021/01/14 01:42:40;;;;;;;32.15;22.15;;;;;;;-0.85;66.54;99027.84;1754185;80;22137;-50
2021/01/14 01:45:09;;;;;;;27.62;19.02;;;;;;;-0.89;66.70;99030.70;1781934;80;21033;-50
2021/01/14 01:47:37;;;;;;;31.42;22.93;;;;;;;-0.92;66.81;99030.63;1781755;79;21061;-50
2021/01/14 01:50:06;;;;;;;86.10;77.08;;;;;;;-0.87;66.90;99032.66;1781940;80;21013;-50
2021/01/14 01:52:34;;;;;;;41.75;28.70;;;;;;;-0.81;66.77;99029.55;1781923;80;21367;-50
2021/01/14 01:55:04;;;;;;;35.43;22.70;;;;;;;-0.83;66.70;99035.15;1781944;80;20982;-50
2021/01/14 01:57:32;;;;;;;40.85;24.65;;;;;;;-0.86;66.94;99034.27;1782076;79;20978;-50
2021/01/14 02:00:00;;;;;;;31.62;20.15;;;;;;;-0.83;67.02;99024.91;1781841;80;20997;-49
2021/01/14 02:02:29;;;;;;;35.68;22.93;;;;;;;-0.81;66.84;99027.67;1781966;79;21049;-50
2021/01/14 02:04:57;;;;;;;38.02;23.52;;;;;;;-0.79;66.79;99024.73;1781843;80;21258;-50
2021/01/14 02:07:50;;;;;;;35.63;23.40;;;;;;;-0.80;66.74;99032.02;1781953;80;21066;-50
2021/01/14 02:10:36;;;;;;;39.27;24.43;;;;;;;-0.77;66.68;99034.23;1781809;80;21006;-49
2021/01/14 02:13:29;;;;;;;35.48;24.63;;;;;;;-0.76;66.78;99029.16;1781980;80;21018;-49
2021/01/14 02:16:00;;;;;;;36.83;25.15;;;;;;;-0.78;66.78;99029.89;1760747;80;21045;-49
2021/01/14 02:18:29;;;;;;;35.13;24.40;;;;;;;-0.85;67.02;99034.58;1781958;79;21650;-49
2021/01/14 02:21:03;;;;;;;40.65;27.95;;;;;;;-0.89;67.26;99036.09;1781855;80;21623;-50
2021/01/14 02:24:06;;;;;;;38.17;27.98;;;;;;;-0.93;67.36;99040.30;1781598;80;20991;-50
2021/01/14 02:26:35;;;;;;;40.38;28.12;;;;;;;-0.96;67.49;99046.97;1781928;80;20966;-50
2021/01/14 02:29:02;;;;;;;35.23;23.60;;;;;;;-0.99;67.58;99037.20;1729483;80;21001;-50
2021/01/14 02:31:32;;;;;;;38.58;26.50;;;;;;;-0.99;67.82;99043.93;1781929;80;21198;-50
2021/01/14 02:33:59;;;;;;;38.10;25.55;;;;;;;-1.02;68.15;99042.52;1781801;79;20993;-50
2021/01/14 02:36:28;;;;;;;38.65;26.17;;;;;;;-1.03;68.14;99044.09;1781922;80;21572;-51
2021/01/14 02:38:55;;;;;;;38.55;24.75;;;;;;;-1.05;68.20;99039.75;1781919;79;20970;-50
2021/01/14 02:41:22;;;;;;;40.38;28.35;;;;;;;-1.06;68.36;99033.24;1781854;80;21026;-50
2021/01/14 02:43:50;;;;;;;45.30;27.13;;;;;;;-1.07;68.30;99032.44;1781968;80;21376;-50
2021/01/14 02:46:19;;;;;;;46.90;30.90;;;;;;;-1.05;68.46;99034.36;1781929;79;21616;-51
2021/01/14 02:49:04;;;;;;;47.90;29.95;;;;;;;-0.97;68.60;99026.98;1781933;79;21020;-50
2021/01/14 02:51:42;;;;;;;47.25;32.25;;;;;;;-0.87;68.38;99024.56;1781948;80;21025;-50
2021/01/14 02:54:11;;;;;;;41.50;27.25;;;;;;;-0.83;68.20;99015.47;1781833;80;21575;-50
2021/01/14 02:56:38;;;;;;;43.00;29.00;;;;;;;-0.84;68.27;99016.01;1781906;80;21448;-50
2021/01/14 02:59:06;;;;;;;44.42;28.85;;;;;;;-0.85;68.31;99014.36;1781711;80;20989;-50
2021/01/14 03:01:34;;;;;;;51.77;33.95;;;;;;;-0.86;68.38;99011.36;1781872;80;21029;-50
2021/01/14 03:04:02;;;;;;;47.03;29.87;;;;;;;-0.86;68.34;99010.01;1781816;80;20982;-50
2021/01/14 03:06:29;;;;;;;61.73;35.78;;;;;;;-0.87;68.46;99013.78;1781868;80;21038;-50
2021/01/14 03:08:57;;;;;;;56.33;35.40;;;;;;;-0.90;68.45;99016.41;1781991;80;22000;-50
2021/01/14 03:11:34;;;;;;;64.22;40.85;;;;;;;-0.90;68.63;99020.96;1781785;80;21017;-51
2021/01/14 03:14:01;;;;;;;54.08;34.45;;;;;;;-0.92;68.47;99017.69;1781814;80;21026;-50
2021/01/14 03:16:29;;;;;;;59.60;39.35;;;;;;;-0.90;68.65;99014.22;1781799;80;21078;-50
2021/01/14 03:18:56;;;;;;;59.08;37.70;;;;;;;-0.87;68.69;99012.44;1781766;79;21025;-50
2021/01/14 03:21:24;;;;;;;54.85;35.15;;;;;;;-0.88;68.68;99017.52;1781837;80;21209;-50
2021/01/14 03:23:52;;;;;;;56.63;37.70;;;;;;;-0.89;68.77;99021.27;1776834;80;21022;-50
2021/01/14 03:26:20;;;;;;;58.73;37.78;;;;;;;-0.90;68.79;99017.76;1765029;81;20970;-50
2021/01/14 03:28:49;;;;;;;56.70;35.60;;;;;;;-0.88;68.80;99014.83;1764951;80;21177;-50
2021/01/14 03:31:17;;;;;;;62.27;38.05;;;;;;;-0.90;68.91;99013.72;1764963;81;21038;-50
2021/01/14 03:33:46;;;;;;;58.48;35.08;;;;;;;-0.90;68.99;99023.66;1764942;81;22224;-50
2021/01/14 03:36:17;;;;;;;58.70;39.78;;;;;;;-0.90;69.02;99011.52;1764838;81;21608;-50
2021/01/14 03:38:44;;;;;;;67.35;39.50;;;;;;;-0.90;69.12;99019.61;1764772;81;21003;-50
2021/01/14 03:41:18;;;;;;;58.10;39.30;;;;;;;-0.88;69.18;99019.68;1764526;81;21132;-50
2021/01/14 03:43:45;;;;;;;52.98;33.73;;;;;;;-0.86;69.21;99022.14;1765031;81;21026;-50
2021/01/14 03:46:16;;;;;;;55.15;36.03;;;;;;;-0.85;69.26;99027.03;1764843;81;21190;-50
2021/01/14 03:48:45;;;;;;;56.48;35.08;;;;;;;-0.87;69.21;99023.22;1765028;79;21002;-50
2021/01/14 03:51:21;;;;;;;53.55;35.50;;;;;;;-0.88;69.28;99026.95;1765027;81;21031;-50
2021/01/14 03:53:51;;;;;;;49.40;33.50;;;;;;;-0.88;69.37;99028.30;1765211;81;21622;-49
2021/01/14 03:56:18;;;;;;;58.70;38.70;;;;;;;-0.87;69.50;99025.91;1765088;80;21033;-50
2021/01/14 03:58:46;;;;;;;62.27;37.90;;;;;;;-0.87;69.43;99024.56;1765076;81;21078;-50
2021/01/14 04:01:15;;;;;;;64.10;38.25;;;;;;;-0.87;69.47;99017.28;1765009;80;21046;-50
2021/01/14 04:03:43;;;;;;;61.55;37.10;;;;;;;-0.86;69.46;99018.09;1765077;81;21023;-50
2021/01/14 04:06:11;;;;;;;54.35;34.95;;;;;;;-0.87;69.54;99024.56;1765004;81;21014;-50
2021/01/14 04:08:40;;;;;;;53.02;32.03;;;;;;;-0.84;69.63;99017.36;1765014;81;20990;-50
2021/01/14 04:11:09;;;;;;;45.30;26.90;;;;;;;-0.81;69.45;99026.86;1765105;81;22246;-50
2021/01/14 04:13:38;;;;;;;40.70;25.52;;;;;;;-0.79;69.60;99020.16;1765009;81;21537;-50
2021/01/14 04:16:12;;;;;;;36.33;23.77;;;;;;;-0.73;69.58;99011.15;1764861;80;20982;-50
2021/01/14 04:18:41;;;;;;;39.23;25.57;;;;;;;-0.65;69.29;99016.71;1765210;81;20999;-50
2021/01/14 04:21:09;;;;;;;36.63;23.70;;;;;;;-0.68;69.05;99009.63;1765180;81;20983;-50
2021/01/14 04:23:37;;;;;;;41.98;26.07;;;;;;;-0.73;69.01;99017.89;1764994;80;21198;-50
2021/01/14 04:26:05;;;;;;;37.03;24.35;;;;;;;-0.78;68.79;99013.72;1765010;81;21604;-50
2021/01/14 04:28:33;;;;;;;34.73;22.58;;;;;;;-0.85;68.84;99020.28;1765051;80;21037;-50
2021/01/14 04:31:00;;;;;;;38.05;24.52;;;;;;;-0.85;69.05;99032.42;1764986;81;21026;-50
2021/01/14 04:33:27;;;;;;;38.23;24.18;;;;;;;-0.85;69.02;99025.68;1765055;80;21462;-50
2021/01/14 04:35:57;;;;;;;42.15;26.60;;;;;;;-0.85;68.86;99019.75;1764800;81;23615;-50
2021/01/14 04:38:28;;;;;;;37.78;23.85;;;;;;;-0.84;68.76;99021.40;1765016;80;21030;-50
2021/01/14 04:41:01;;;;;;;36.25;24.52;;;;;;;-0.84;68.80;99021.40;1764988;81;21270;-50
2021/01/14 04:43:32;;;;;;;38.95;23.85;;;;;;;-0.83;69.08;99023.02;1764783;81;21014;-50
2021/01/14 04:46:07;;;;;;;40.38;26.20;;;;;;;-0.77;69.11;99026.16;1764867;81;21026;-50
2021/01/14 04:48:42;;;;;;;34.70;24.30;;;;;;;-0.72;69.00;99029.48;1765006;79;21429;-51
2021/01/14 04:51:19;;;;;;;36.05;25.02;;;;;;;-0.67;68.78;99027.43;1765176;81;21006;-50
2021/01/14 04:53:48;;;;;;;35.25;24.55;;;;;;;-0.64;68.56;99025.61;1764994;81;21048;-50
2021/01/14 04:56:22;;;;;;;36.53;24.02;;;;;;;-0.64;68.64;99031.00;1765023;81;21026;-51
2021/01/14 04:58:49;;;;;;;40.23;24.10;;;;;;;-0.65;68.54;99025.34;1764846;81;21076;-50
2021/01/14 05:01:23;;;;;;;33.10;22.00;;;;;;;-0.68;68.58;99021.23;1765076;80;22287;-50
2021/01/14 05:03:53;;;;;;;35.13;22.65;;;;;;;-0.74;68.69;99023.52;1764962;81;21671;-50
2021/01/14 05:06:24;;;;;;;37.80;22.37;;;;;;;-0.79;68.91;99024.73;1764857;81;21042;-50
2021/01/14 05:09:05;;;;;;;34.45;22.65;;;;;;;-0.81;69.07;99024.16;1765003;81;22002;-50
2021/01/14 05:11:40;;;;;;;36.88;24.32;;;;;;;-0.84;69.18;99020.05;1764755;81;21058;-50
2021/01/14 05:14:07;;;;;;;36.20;23.52;;;;;;;-0.87;69.23;99018.64;1754872;81;21218;-50
2021/01/14 05:16:35;;;;;;;39.80;25.48;;;;;;;-0.88;69.33;99018.34;1765009;81;21053;-50
2021/01/14 05:19:02;;;;;;;40.03;26.02;;;;;;;-0.90;69.47;99016.41;1764958;81;21629;-50
2021/01/14 05:21:33;;;;;;;41.63;26.77;;;;;;;-0.91;69.54;99016.11;1765037;81;20995;-50
2021/01/14 05:24:13;;;;;;;39.90;27.20;;;;;;;-0.91;69.58;99014.76;1766046;80;21014;-50
2021/01/14 05:26:44;;;;;;;36.20;25.00;;;;;;;-0.90;69.58;99012.88;1781997;80;21198;-50
2021/01/14 05:29:18;;;;;;;47.25;28.92;;;;;;;-0.92;69.51;99016.34;1781788;80;21045;-50
2021/01/14 05:31:47;;;;;;;48.70;34.43;;;;;;;-0.92;69.57;99021.73;1781965;80;21029;-50
2021/01/14 05:34:15;;;;;;;73.87;45.65;;;;;;;-0.93;69.57;99020.92;1781873;80;22443;-50
2021/01/14 05:37:04;;;;;;;234.27;109.87;;;;;;;-0.92;69.74;99023.89;1782027;80;20977;-50
2021/01/14 05:39:43;;;;;;;61.13;34.78;;;;;;;-0.83;69.80;99020.86;1781860;79;21049;-50
2021/01/14 05:42:13;;;;;;;54.35;32.95;;;;;;;-0.75;69.58;99024.03;1798689;79;21612;-50
2021/01/14 05:47:27;;;;;;;65.90;37.05;;;;;;;-0.67;69.34;99024.73;1877026;76;22633;-50
2021/01/14 05:50:06;;;;;;;74.95;38.70;;;;;;;-0.72;69.26;99026.80;1818029;78;20973;-50
2021/01/14 05:52:34;;;;;;;65.22;36.23;;;;;;;-0.71;69.32;99026.55;1818234;78;21200;-50
2021/01/14 05:55:08;;;;;;;55.48;32.95;;;;;;;-0.65;69.32;99031.55;1818170;78;21041;-51
2021/01/14 05:57:40;;;;;;;61.50;36.13;;;;;;;-0.63;69.10;99032.66;1818097;78;21006;-50
2021/01/14 06:00:12;;;;;;;84.62;44.05;;;;;;;-0.61;69.00;99031.91;1817955;78;21453;-50
2021/01/14 06:02:40;;;;;;;111.10;55.15;;;;;;;-0.60;68.99;99040.27;1817857;78;21043;-50
2021/01/14 06:05:28;;;;;;;96.55;50.15;;;;;;;-0.58;69.07;99039.53;1818082;78;21638;-50
2021/01/14 06:07:56;;;;;;;79.32;44.20;;;;;;;-0.53;69.15;99036.42;1818047;78;20974;-51
2021/01/14 06:10:34;;;;;;;61.85;32.58;;;;;;;-0.47;69.04;99035.17;1788814;78;21028;-50
2021/01/14 06:13:02;;;;;;;62.38;37.08;;;;;;;-0.50;68.97;99035.64;1818103;78;21568;-50
2021/01/14 06:15:29;;;;;;;53.42;31.60;;;;;;;-0.55;69.18;99035.01;1818082;78;21247;-50
2021/01/14 06:18:01;;;;;;;67.40;40.80;;;;;;;-0.59;68.96;99029.78;1817955;78;22112;-52
2021/01/14 06:20:28;;;;;;;66.82;39.55;;;;;;;-0.62;69.22;99037.00;1818132;78;20977;-52
2021/01/14 06:22:56;;;;;;;63.95;34.83;;;;;;;-0.65;69.61;99041.52;1788613;78;21004;-52
2021/01/14 06:25:23;;;;;;;57.73;35.45;;;;;;;-0.70;69.80;99029.55;1817970;78;21005;-52
2021/01/14 06:27:56;;;;;;;75.08;44.05;;;;;;;-0.65;70.06;99030.73;1818257;78;21591;-52
2021/01/14 06:30:23;;;;;;;61.95;38.92;;;;;;;-0.60;70.12;99029.48;1817976;78;20972;-51
2021/01/14 06:32:59;;;;;;;65.90;40.90;;;;;;;-0.59;70.00;99033.83;1817930;78;21045;-51
2021/01/14 06:35:34;;;;;;;75.52;44.58;;;;;;;-0.55;70.10;99026.92;1888616;75;28181;-49
2021/01/14 06:38:04;;;;;;;69.65;39.23;;;;;;;-0.61;69.95;99024.63;1859432;77;21600;-51
2021/01/14 06:40:31;;;;;;;61.77;37.65;;;;;;;-0.62;70.08;99029.72;1814367;78;22165;-50
2021/01/14 06:43:00;;;;;;;66.57;43.92;;;;;;;-0.62;70.23;99031.07;1760828;78;21537;-50
2021/01/14 06:45:33;;;;;;;58.48;37.20;;;;;;;-0.61;70.49;99033.26;1782714;78;21627;-51
2021/01/14 06:48:05;;;;;;;52.17;35.13;;;;;;;-0.56;70.60;99032.84;1821212;78;21026;-50
2021/01/14 06:50:33;;;;;;;62.75;40.80;;;;;;;-0.54;70.59;99026.68;1797204;79;20984;-52
2021/01/14 06:53:04;;;;;;;57.08;36.75;;;;;;;-0.50;70.66;99030.25;1792272;80;21357;-51
2021/01/14 06:55:36;;;;;;;58.10;37.60;;;;;;;-0.49;70.68;99030.55;1763743;80;21622;-50
2021/01/14 06:58:16;;;;;;;59.58;40.88;;;;;;;-0.49;70.83;99035.41;1792328;80;21052;-51
2021/01/14 07:00:47;;;;;;;52.33;34.78;;;;;;;-0.48;70.91;99039.75;1792251;80;21048;-50
2021/01/14 07:03:23;;;;;;;52.78;35.03;;;;;;;-0.50;70.89;99042.39;1792435;80;21051;-51
2021/01/14 07:06:04;;;;;;;55.25;34.85;;;;;;;-0.55;70.96;99039.05;1792354;80;21286;-50
2021/01/14 07:08:41;;;;;;;57.10;40.08;;;;;;;-0.56;71.19;99040.94;1792475;80;20996;-50
2021/01/14 07:11:16;;;;;;;56.18;37.03;;;;;;;-0.57;71.37;99047.92;1791979;80;21047;-51
2021/01/14 07:13:47;;;;;;;72.40;41.55;;;;;;;-0.52;71.63;99043.97;1792271;80;21035;-50
2021/01/14 07:16:18;;;;;;;58.05;35.58;;;;;;;-0.43;71.56;99050.67;1792550;80;21304;-51
2021/01/14 07:18:45;;;;;;;58.52;36.65;;;;;;;-0.37;71.42;99052.96;1791177;80;21084;-51
2021/01/14 07:21:41;;;;;;;68.02;42.65;;;;;;;-0.33;71.33;99057.34;1792481;79;20976;-51
2021/01/14 07:24:28;;;;;;;56.20;35.10;;;;;;;-0.35;71.35;99055.69;1793212;78;21287;-51
2021/01/14 07:26:57;;;;;;;63.52;37.30;;;;;;;-0.29;71.06;99059.87;1785685;79;21002;-51
2021/01/14 07:29:26;;;;;;;55.65;36.77;;;;;;;-0.32;70.89;99062.50;1780973;79;21039;-52
2021/01/14 07:31:55;;;;;;;54.25;35.03;;;;;;;-0.33;70.93;99054.11;1792545;79;21881;-51
2021/01/14 07:34:44;;;;;;;67.40;35.05;;;;;;;-0.30;70.89;99062.27;1764997;80;21026;-51
2021/01/14 07:37:18;;;;;;;64.65;41.50;;;;;;;-0.35;70.56;99062.44;1764429;80;20993;-51
2021/01/14 07:39:56;;;;;;;57.75;34.15;;;;;;;-0.36;70.90;99062.16;1772842;80;21069;-52
2021/01/14 07:42:32;;;;;;;65.62;40.05;;;;;;;-0.31;71.14;99060.64;1760860;80;20966;-51
2021/01/14 07:45:16;;;;;;;68.90;41.05;;;;;;;-0.30;71.62;99064.45;1772559;80;21334;-51
2021/01/14 07:47:44;;;;;;;58.70;35.70;;;;;;;-0.24;71.64;99061.34;1797440;79;21000;-52
2021/01/14 07:50:26;;;;;;;77.10;42.70;;;;;;;-0.21;71.59;99058.98;1797865;79;20973;-51
2021/01/14 07:52:56;;;;;;;77.92;46.73;;;;;;;-0.22;71.43;99057.33;1772224;81;21036;-51
2021/01/14 07:55:31;;;;;;;77.78;46.60;;;;;;;-0.21;71.64;99059.52;1790918;79;20992;-49
2021/01/14 07:58:07;;;;;;;96.03;48.53;;;;;;;-0.22;71.62;99065.42;1769684;80;21415;-50
2021/01/14 08:00:35;;;;;;;81.05;44.42;;;;;;;-0.23;71.72;99062.45;1780708;80;23902;-50
2021/01/14 08:03:14;;;;;;;89.70;47.78;;;;;;;-0.21;71.88;99062.22;1781121;80;21145;-52
2021/01/14 08:05:57;;;;;;;76.50;43.35;;;;;;;-0.17;72.08;99070.14;1781334;80;21046;-52
2021/01/14 08:08:38;;;;;;;62.17;33.20;;;;;;;-0.13;72.06;99073.97;1772675;80;20990;-50
2021/01/14 08:14:18;;;;;;;55.20;30.75;;;;;;;-0.07;71.79;99077.61;1861120;76;28284;-52
2021/01/14 08:16:53;;;;;;;51.20;32.00;;;;;;;-0.15;71.70;99082.85;1803165;77;20990;-51
2021/01/14 08:19:32;;;;;;;80.05;37.28;;;;;;;-0.18;71.69;99081.98;1808518;77;22096;-51
2021/01/14 08:22:10;;;;;;;44.95;28.95;;;;;;;-0.16;71.81;99084.44;1744130;80;22048;-52
2021/01/14 08:24:55;;;;;;;39.40;24.72;;;;;;;-0.15;71.53;99086.90;1753377;79;22223;-50
2021/01/14 08:27:31;;;;;;;53.00;29.65;;;;;;;-0.25;71.26;99091.53;1760977;79;22268;-53
2021/01/14 08:30:15;;;;;;;54.40;30.88;;;;;;;-0.32;71.85;99091.37;1808890;77;21392;-52
2021/01/14 08:32:49;;;;;;;44.42;27.30;;;;;;;-0.35;71.87;99093.46;1811200;77;21354;-52
2021/01/14 08:35:27;;;;;;;46.73;27.75;;;;;;;-0.33;72.08;99091.06;1743658;81;24848;-51
2021/01/14 08:38:11;;;;;;;38.05;24.25;;;;;;;-0.33;72.08;99091.06;1744449;81;27235;-51
2021/01/14 08:40:40;;;;;;;45.85;27.07;;;;;;;-0.32;71.58;99096.77;1743528;81;21672;-51
2021/01/14 08:43:12;;;;;;;43.10;28.90;;;;;;;-0.36;71.80;99093.19;1746545;81;21011;-54
2021/01/14 08:45:55;;;;;;;57.23;29.98;;;;;;;-0.42;71.81;99099.50;1745846;81;21202;-54
2021/01/14 08:48:29;;;;;;;40.58;26.10;;;;;;;-0.48;72.04;99098.28;1778308;80;20978;-51
2021/01/14 08:51:00;;;;;;;48.28;31.42;;;;;;;-0.55;72.17;99093.80;1741696;80;22066;-52
2021/01/14 08:53:36;;;;;;;45.73;26.45;;;;;;;-0.59;72.68;99089.92;1769214;79;20973;-52
2021/01/14 08:56:08;;;;;;;73.97;41.40;;;;;;;-0.58;72.43;99086.72;1753999;80;20993;-51
2021/01/14 08:58:45;;;;;;;64.30;37.48;;;;;;;-0.60;72.66;99089.66;1743410;81;21985;-52
2021/01/14 09:01:24;;;;;;;62.70;38.13;;;;;;;-0.55;72.92;99089.77;1756034;81;21530;-53
2021/01/14 09:03:53;;;;;;;50.48;33.67;;;;;;;-0.48;73.11;99088.31;1756376;79;21016;-52
2021/01/14 09:06:37;;;;;;;75.55;47.78;;;;;;;-0.38;73.03;99083.14;1806346;77;20985;-50
2021/01/14 09:09:06;;;;;;;62.38;37.45;;;;;;;-0.28;72.89;99080.41;1742032;81;20978;-52
2021/01/14 09:11:34;;;;;;;87.80;50.67;;;;;;;-0.23;72.83;99077.30;1754160;79;22821;-51
2021/01/14 09:14:14;;;;;;;58.45;38.40;;;;;;;-0.18;72.76;99082.78;1752254;79;21682;-51
2021/01/14 09:16:45;;;;;;;55.00;35.48;;;;;;;-0.13;72.49;99072.63;1746411;80;21028;-51
2021/01/14 09:19:19;;;;;;;60.20;35.70;;;;;;;-0.07;72.44;99077.09;1740636;80;21034;-52
2021/01/14 09:21:47;;;;;;;56.20;34.95;;;;;;;-0.07;72.36;99071.70;1742090;80;20980;-53
2021/01/14 09:24:16;;;;;;;61.63;39.50;;;;;;;-0.12;72.20;99071.58;1749958;80;22272;-53
2021/01/14 09:26:48;;;;;;;59.00;37.60;;;;;;;-0.16;72.56;99072.30;1750472;81;21010;-52
2021/01/14 09:29:20;;;;;;;55.10;36.20;;;;;;;-0.14;72.79;99071.52;1760235;80;21014;-51
2021/01/14 09:31:48;;;;;;;61.05;37.53;;;;;;;-0.09;72.85;99075.14;1757101;80;21001;-51
2021/01/14 09:34:15;;;;;;;70.85;43.58;;;;;;;-0.09;72.84;99074.34;1747710;80;20979;-53
2021/01/14 09:36:43;;;;;;;65.75;40.08;;;;;;;-0.13;73.11;99075.33;1749299;81;21220;-50
2021/01/14 09:39:17;;;;;;;61.02;40.05;;;;;;;-0.07;73.08;99073.56;1759073;81;20989;-53
2021/01/14 09:41:44;;;;;;;63.98;39.70;;;;;;;-0.04;72.81;99074.46;1762353;79;21003;-51
2021/01/14 09:44:14;;;;;;;71.50;44.20;;;;;;;-0.11;72.84;99078.63;1757846;79;21786;-50
2021/01/14 09:46:43;;;;;;;68.35;42.45;;;;;;;-0.17;72.97;99070.14;1763169;79;21741;-51
2021/01/14 09:49:15;;;;;;;69.95;40.55;;;;;;;-0.17;73.48;99076.88;1763911;79;21336;-50
2021/01/14 09:51:43;;;;;;;77.47;45.92;;;;;;;-0.10;73.53;99077.58;1763492;79;21025;-51
2021/01/14 09:54:11;;;;;;;97.47;58.95;;;;;;;-0.06;73.58;99074.70;1763634;79;20992;-51
2021/01/14 09:56:54;;;;;;;101.07;51.50;;;;;;;0.02;73.58;99075.39;1764649;79;20989;-51
2021/01/14 09:59:39;;;;;;;96.82;54.10;;;;;;;0.07;73.55;99074.13;1760700;79;21011;-50
2021/01/14 10:02:26;;;;;;;62.78;38.10;;;;;;;0.14;73.61;99080.22;1762373;79;21189;-51
2021/01/14 10:04:59;;;;;;;69.30;48.45;;;;;;;0.20;73.19;99079.29;1763680;81;21955;-52
2021/01/14 10:07:27;;;;;;;65.80;39.40;;;;;;;0.07;73.21;99064.69;1762482;81;21437;-52
2021/01/14 10:09:56;;;;;;;68.30;43.28;;;;;;;-0.01;72.99;99068.58;1732860;79;20973;-51
2021/01/14 10:12:23;;;;;;;67.10;40.05;;;;;;;-0.18;73.10;99060.39;1763427;81;21610;-52
2021/01/14 10:15:13;;;;;;;61.68;39.48;;;;;;;-0.29;73.64;99055.82;1756197;81;22271;-52
2021/01/14 10:17:41;;;;;;;61.23;40.50;;;;;;;-0.33;73.98;99060.04;1754042;81;21619;-52
2021/01/14 10:20:12;;;;;;;67.97;43.90;;;;;;;-0.38;74.13;99064.27;1755039;79;21921;-50
2021/01/14 10:22:52;;;;;;;73.83;45.78;;;;;;;-0.44;74.27;99059.00;1756616;80;20993;-51
2021/01/14 10:25:20;;;;;;;73.97;42.58;;;;;;;-0.49;74.58;99059.69;1754391;81;20965;-51
2021/01/14 10:28:11;;;;;;;67.03;41.23;;;;;;;-0.48;74.58;99061.34;1752838;79;21392;-50
2021/01/14 10:30:40;;;;;;;66.82;41.05;;;;;;;-0.53;74.71;99057.16;1756336;79;21580;-49
2021/01/14 10:33:07;;;;;;;65.28;39.20;;;;;;;-0.57;75.02;99053.31;1754374;79;20962;-52
2021/01/14 10:35:36;;;;;;;68.37;42.65;;;;;;;-0.54;75.34;99059.05;1755522;79;20948;-52
2021/01/14 10:38:16;;;;;;;69.50;43.60;;;;;;;-0.55;75.41;99047.95;1754700;81;20974;-52
2021/01/14 10:40:49;;;;;;;75.05;43.92;;;;;;;-0.56;75.51;99046.33;1755236;81;21392;-53
2021/01/14 10:43:30;;;;;;;62.80;39.45;;;;;;;-0.55;75.93;99046.61;1750736;79;21025;-52
2021/01/14 10:45:59;;;;;;;68.15;42.70;;;;;;;-0.45;76.07;99047.38;1751766;79;21031;-52
2021/01/14 10:48:37;;;;;;;72.72;41.20;;;;;;;-0.38;76.03;99045.38;1754987;81;21124;-52
2021/01/14 10:51:05;;;;;;;75.40;42.78;;;;;;;-0.27;76.05;99044.25;1755036;81;20978;-52
2021/01/14 10:53:36;;;;;;;64.10;40.23;;;;;;;-0.18;76.01;99044.20;1758755;79;21194;-51
2021/01/14 10:56:11;;;;;;;79.22;49.73;;;;;;;-0.09;75.91;99038.71;1753593;80;21014;-54
2021/01/14 10:58:40;;;;;;;72.43;43.87;;;;;;;-0.11;75.73;99039.48;1756616;79;21007;-51
2021/01/14 11:01:17;;;;;;;75.25;46.83;;;;;;;-0.08;75.51;99037.66;1753708;81;21832;-52
2021/01/14 11:03:44;;;;;;;85.80;49.95;;;;;;;-0.11;75.19;99034.09;1756779;80;21091;-51
2021/01/14 11:06:12;;;;;;;109.95;56.00;;;;;;;-0.11;75.39;99025.99;1755324;81;21517;-51
2021/01/14 11:08:46;;;;;;;111.65;59.48;;;;;;;-0.08;75.58;99020.66;1723848;81;21596;-51
2021/01/14 11:11:15;;;;;;;;;;;;;;;-0.04;75.64;99028.03;1756695;80;20997;-52
2021/01/14 11:13:47;;;;;;;89.67;50.20;;;;;;;0.03;75.43;99031.12;1752581;81;20251;-52
2021/01/14 11:16:17;;;;;;;98.22;49.95;;;;;;;-0.01;75.33;99026.20;1756759;79;20942;-53
2021/01/14 11:18:47;;;;;;;84.10;48.48;;;;;;;0.02;75.39;99026.27;1756034;79;21208;-52
2021/01/14 11:21:19;;;;;;;102.25;53.68;;;;;;;0.06;75.47;99017.14;1808460;77;20978;-52
2021/01/14 11:23:46;;;;;;;88.45;50.48;;;;;;;0.10;75.45;99019.66;1806345;77;20962;-52
2021/01/14 11:26:18;;;;;;;197.37;81.37;;;;;;;0.18;75.41;99020.64;1745031;80;21370;-53
2021/01/14 11:28:46;;;;;;;86.10;47.60;;;;;;;0.24;75.19;99013.45;1740798;82;21016;-51
2021/01/14 11:31:14;;;;;;;86.12;51.75;;;;;;;0.21;74.75;99017.45;1744510;81;21302;-51
2021/01/14 11:33:42;;;;;;;159.30;77.12;;;;;;;0.17;74.79;99012.23;1752766;79;21008;-52
2021/01/14 11:36:10;;;;;;;96.82;51.58;;;;;;;0.20;75.01;99017.19;1747284;79;20981;-51
2021/01/14 11:38:38;;;;;;;84.67;48.55;;;;;;;0.26;75.12;99018.11;1737136;82;21002;-52
2021/01/14 11:41:05;;;;;;;93.12;53.23;;;;;;;0.29;75.22;99019.78;1748605;81;21133;-53
2021/01/14 11:43:33;;;;;;;70.47;43.95;;;;;;;0.30;75.18;99021.94;1745708;81;21259;-51